Time;durP1;ratioP1;P1;durP2;ratioP2;P2;SDS_P1;SDS_P2;PMS_P1;PMS_P2;Temp;Humidity;BMP_temperature;BMP_pressure;BME280_temperature;BME280_humidity;BME280_pressure;Samples;Min_cycle;Max_cycle;Signal;HPM_P1;HPM_P2
2022/10/13 00:00:59;;;;;;;14.57;13.27;;;10.70;94.00;;;;;;5053610;28;20447;-71
2022/10/13 00:03:26;;;;;;;14.60;13.20;;;10.70;94.00;;;;;;5052875;28;20457;-71
2022/10/13 00:05:53;;;;;;;15.38;13.77;;;10.70;94.10;;;;;;5051828;28;20426;-71
2022/10/13 00:08:21;;;;;;;15.65;14.05;;;10.60;94.00;;;;;;5051857;28;20512;-71
2022/10/13 00:10:50;;;;;;;14.90;13.50;;;10.60;94.10;;;;;;5052343;28;20425;-71
2022/10/13 00:13:16;;;;;;;15.27;13.77;;;10.70;94.20;;;;;;5047027;28;20493;-71
2022/10/13 00:15:46;;;;;;;14.20;12.90;;;10.60;94.20;;;;;;5048503;28;20426;-70
2022/10/13 00:18:13;;;;;;;15.47;14.00;;;10.60;94.20;;;;;;5050695;28;20417;-71
2022/10/13 00:20:42;;;;;;;15.23;13.73;;;10.60;94.20;;;;;;5034701;28;20446;-71
2022/10/13 00:23:09;;;;;;;14.90;13.20;;;10.60;94.20;;;;;;5047163;28;20504;-69
2022/10/13 00:25:41;;;;;;;15.15;13.65;;;10.60;94.20;;;;;;5047963;28;20436;-71
2022/10/13 00:28:08;;;;;;;15.90;14.40;;;10.60;94.30;;;;;;5050393;28;20445;-70
2022/10/13 00:30:35;;;;;;;15.98;14.40;;;10.60;94.30;;;;;;5051560;28;20425;-70
2022/10/13 00:33:03;;;;;;;15.63;14.13;;;10.50;94.20;;;;;;5048072;28;20440;-71
2022/10/13 00:35:29;;;;;;;15.63;13.82;;;10.60;94.20;;;;;;5042511;28;20441;-71
2022/10/13 00:37:56;;;;;;;15.48;13.90;;;10.60;94.20;;;;;;5048021;28;20410;-70
2022/10/13 00:40:23;;;;;;;16.48;13.90;;;10.60;94.10;;;;;;5048180;28;20795;-71
2022/10/13 00:42:50;;;;;;;16.75;14.75;;;10.60;94.20;;;;;;5047161;28;20436;-70
2022/10/13 00:45:25;;;;;;;16.25;14.75;;;10.60;94.20;;;;;;5054245;28;20425;-70
2022/10/13 00:47:56;;;;;;;15.43;13.90;;;10.60;94.20;;;;;;5053540;28;20898;-71
2022/10/13 00:50:29;;;;;;;16.65;14.93;;;10.60;94.30;;;;;;5056827;28;20421;-70
2022/10/13 00:52:57;;;;;;;14.77;13.43;;;10.60;94.40;;;;;;5055162;28;20440;-71
2022/10/13 00:55:28;;;;;;;15.75;14.15;;;10.60;94.50;;;;;;5051039;28;20425;-70
2022/10/13 00:57:58;;;;;;;16.20;14.60;;;10.60;94.60;;;;;;5045902;28;20816;-71
2022/10/13 01:00:25;;;;;;;15.52;14.13;;;10.60;94.50;;;;;;5049986;28;20803;-69
2022/10/13 01:02:52;;;;;;;15.20;13.80;;;10.50;94.50;;;;;;5054085;28;20500;-70
2022/10/13 01:05:20;;;;;;;16.92;14.85;;;10.60;94.70;;;;;;5047842;28;20444;-71
2022/10/13 01:07:50;;;;;;;14.95;13.55;;;10.60;94.60;;;;;;5048811;28;20432;-71
2022/10/13 01:10:25;;;;;;;16.10;14.50;;;10.50;94.70;;;;;;5047721;28;20465;-69
2022/10/13 01:13:01;;;;;;;15.25;13.85;;;10.60;94.80;;;;;;5037699;28;20439;-71
2022/10/13 01:15:32;;;;;;;16.30;14.70;;;10.60;94.80;;;;;;5047408;28;20435;-71
2022/10/13 01:18:07;;;;;;;16.10;14.50;;;10.60;94.80;;;;;;5047682;28;20422;-72
2022/10/13 01:21:00;;;;;;;15.73;14.23;;;10.60;94.80;;;;;;5046883;28;20456;-71
2022/10/13 01:24:11;;;;;;;15.10;13.50;;;10.60;94.80;;;;;;5034792;28;20923;-71
2022/10/13 01:27:15;;;;;;;15.63;14.02;;;10.50;94.80;;;;;;5046066;28;20429;-71
2022/10/13 01:30:12;;;;;;;15.38;13.77;;;10.50;94.80;;;;;;5049279;28;20449;-71
2022/10/13 01:33:04;;;;;;;15.80;14.27;;;10.50;95.00;;;;;;5041019;28;20960;-70
2022/10/13 01:35:44;;;;;;;16.30;14.60;;;10.50;94.90;;;;;;5042514;28;20421;-72
2022/10/13 01:38:22;;;;;;;15.25;13.85;;;10.50;95.00;;;;;;5027802;28;20415;-71
2022/10/13 01:40:56;;;;;;;15.68;14.07;;;10.50;95.00;;;;;;5029443;28;20429;-70
2022/10/13 01:43:27;;;;;;;15.75;14.25;;;10.50;95.00;;;;;;5046504;28;20447;-70
2022/10/13 01:46:01;;;;;;;15.90;14.30;;;10.50;95.00;;;;;;5047696;28;20436;-72
2022/10/13 01:48:29;;;;;;;15.07;13.48;;;10.50;95.00;;;;;;5047211;28;20425;-70
2022/10/13 01:50:58;;;;;;;15.27;13.68;;;10.50;94.90;;;;;;5046258;28;20428;-70
2022/10/13 01:53:25;;;;;;;15.90;14.20;;;10.50;94.80;;;;;;5046692;28;20783;-73
2022/10/13 01:55:54;;;;;;;15.35;13.95;;;10.50;94.70;;;;;;5045995;28;20463;-72
2022/10/13 01:58:21;;;;;;;15.60;14.10;;;10.50;94.90;;;;;;5045815;28;20928;-72
2022/10/13 02:01:00;;;;;;;16.20;14.60;;;10.50;94.90;;;;;;5046114;28;20429;-72
2022/10/13 02:03:36;;;;;;;15.90;14.20;;;10.50;94.90;;;;;;5046454;28;20421;-72
2022/10/13 02:06:11;;;;;;;16.20;14.70;;;10.50;95.00;;;;;;5046441;28;20413;-72
2022/10/13 02:08:43;;;;;;;16.75;15.10;;;10.40;95.10;;;;;;5046920;28;20417;-70
2022/10/13 02:11:14;;;;;;;16.05;14.55;;;10.40;95.10;;;;;;5046525;28;20427;-72
2022/10/13 02:13:49;;;;;;;15.50;14.10;;;10.40;95.10;;;;;;5036325;28;21097;-72
2022/10/13 02:16:20;;;;;;;15.85;14.32;;;10.40;95.20;;;;;;5038548;28;20433;-71
2022/10/13 02:18:47;;;;;;;17.00;13.93;;;10.40;95.20;;;;;;5046558;28;20527;-72
2022/10/13 02:21:16;;;;;;;17.17;15.38;;;10.40;95.20;;;;;;5047426;28;20425;-70
2022/10/13 02:23:42;;;;;;;16.40;14.70;;;10.40;95.20;;;;;;5049574;28;20421;-71
2022/10/13 02:26:09;;;;;;;15.77;13.90;;;10.50;95.20;;;;;;5049943;28;20421;-72
2022/10/13 02:28:37;;;;;;;17.20;14.83;;;10.50;95.10;;;;;;5042913;28;20949;-71
2022/10/13 02:31:05;;;;;;;16.80;15.07;;;10.50;95.10;;;;;;5049114;28;20942;-72
2022/10/13 02:33:34;;;;;;;16.98;14.65;;;10.50;95.00;;;;;;5111854;22;20536;-69
2022/10/13 02:36:00;;;;;;;16.95;15.27;;;10.50;95.10;;;;;;5108201;27;20415;-69
2022/10/13 02:38:27;;;;;;;16.70;15.10;;;10.50;95.00;;;;;;5109815;28;20424;-69
2022/10/13 02:40:54;;;;;;;16.60;14.77;;;10.50;95.00;;;;;;5110083;27;20423;-69
2022/10/13 02:43:21;;;;;;;15.65;14.15;;;10.50;95.00;;;;;;5096398;28;20583;-69
2022/10/13 02:45:47;;;;;;;17.08;15.40;;;10.50;94.90;;;;;;5105924;28;20770;-69
2022/10/13 02:48:14;;;;;;;16.77;15.07;;;10.60;94.80;;;;;;5110294;28;20421;-69
2022/10/13 02:50:42;;;;;;;17.00;15.20;;;10.60;94.70;;;;;;5109908;28;20438;-70
2022/10/13 02:53:09;;;;;;;16.77;15.05;;;10.60;94.70;;;;;;5109451;28;20427;-69
2022/10/13 02:55:36;;;;;;;16.95;15.18;;;10.60;94.70;;;;;;5110282;28;21058;-69
2022/10/13 02:58:03;;;;;;;16.45;14.95;;;10.60;94.90;;;;;;5107901;28;20431;-69
2022/10/13 03:00:30;;;;;;;16.67;14.50;;;10.60;94.40;;;;;;5110045;28;20511;-69
2022/10/13 03:02:57;;;;;;;16.08;14.40;;;10.60;94.40;;;;;;5109047;28;20412;-69
2022/10/13 03:05:23;;;;;;;16.73;14.93;;;10.60;94.30;;;;;;5109611;28;20419;-69
2022/10/13 03:07:51;;;;;;;16.58;14.85;;;10.60;94.30;;;;;;5109312;28;20416;-69
2022/10/13 03:10:18;;;;;;;16.70;14.95;;;10.60;94.30;;;;;;5108193;28;20812;-69
2022/10/13 03:12:45;;;;;;;16.20;14.60;;;10.60;94.40;;;;;;5107647;28;21086;-69
2022/10/13 03:15:12;;;;;;;16.45;14.85;;;10.60;94.40;;;;;;5090175;28;20410;-69
2022/10/13 03:17:38;;;;;;;16.08;14.40;;;10.60;94.40;;;;;;5109008;28;20430;-69
2022/10/13 03:20:07;;;;;;;17.10;14.70;;;10.60;94.50;;;;;;5109376;28;20413;-69
2022/10/13 03:22:34;;;;;;;15.88;14.38;;;10.60;94.60;;;;;;5108558;28;20416;-70
2022/10/13 03:25:02;;;;;;;15.65;14.25;;;10.60;94.50;;;;;;5106031;28;20431;-69
2022/10/13 03:27:29;;;;;;;15.00;13.70;;;10.60;94.40;;;;;;5106403;27;20434;-70
2022/10/13 03:29:56;;;;;;;16.13;14.52;;;10.60;94.40;;;;;;5109170;28;20416;-70
2022/10/13 03:32:22;;;;;;;16.58;15.07;;;10.60;94.30;;;;;;5103004;28;20907;-69
2022/10/13 03:34:50;;;;;;;16.00;14.40;;;10.60;94.30;;;;;;5097345;28;20440;-69
2022/10/13 03:37:17;;;;;;;15.50;14.10;;;10.60;94.40;;;;;;5102544;28;20735;-69
2022/10/13 03:39:44;;;;;;;16.45;14.85;;;10.60;94.30;;;;;;5108323;28;20429;-69
2022/10/13 03:42:12;;;;;;;15.95;14.45;;;10.50;94.30;;;;;;5100833;28;20788;-69
2022/10/13 03:44:38;;;;;;;16.02;14.50;;;10.60;94.40;;;;;;5109058;28;20423;-69
2022/10/13 03:47:05;;;;;;;17.20;15.43;;;10.60;94.30;;;;;;5108731;27;20408;-69
2022/10/13 03:49:32;;;;;;;17.33;15.63;;;10.60;94.30;;;;;;5108990;28;20554;-69
2022/10/13 03:51:59;;;;;;;17.27;15.60;;;10.50;94.30;;;;;;5108727;28;20431;-69
2022/10/13 03:54:26;;;;;;;16.02;14.50;;;10.50;94.40;;;;;;5101652;28;20921;-68
2022/10/13 03:56:52;;;;;;;17.70;15.80;;;10.50;94.40;;;;;;5105677;28;20424;-69
2022/10/13 03:59:21;;;;;;;16.38;14.68;;;10.50;94.50;;;;;;5108806;28;20408;-69
2022/10/13 04:01:47;;;;;;;16.77;15.07;;;10.50;94.50;;;;;;5108276;28;20413;-69
2022/10/13 04:04:16;;;;;;;16.30;14.60;;;10.60;94.50;;;;;;5107356;28;20493;-69
2022/10/13 04:06:43;;;;;;;16.63;14.90;;;10.60;94.50;;;;;;5106823;27;21042;-69
2022/10/13 04:09:09;;;;;;;16.35;14.60;;;10.60;94.50;;;;;;5108834;27;20430;-69
2022/10/13 04:11:36;;;;;;;16.38;14.82;;;10.60;94.50;;;;;;5113468;27;20432;-69
2022/10/13 04:14:03;;;;;;;16.77;14.93;;;10.60;94.50;;;;;;5105847;27;20434;-69
2022/10/13 04:16:32;;;;;;;16.58;14.88;;;10.60;94.40;;;;;;5112200;27;20960;-68
2022/10/13 04:19:00;;;;;;;16.50;15.00;;;10.60;94.30;;;;;;5110416;27;20426;-68
2022/10/13 04:21:28;;;;;;;16.05;13.63;;;10.60;94.20;;;;;;5109057;27;20759;-68
2022/10/13 04:23:56;;;;;;;15.97;14.27;;;10.60;94.20;;;;;;5106119;27;20453;-68
2022/10/13 04:26:25;;;;;;;15.57;13.98;;;10.60;94.00;;;;;;5097436;27;20493;-68
2022/10/13 04:28:53;;;;;;;16.83;15.23;;;10.60;94.00;;;;;;5116598;27;20439;-68
2022/10/13 04:31:21;;;;;;;16.30;14.70;;;10.60;94.00;;;;;;5108951;27;20914;-68
2022/10/13 04:33:50;;;;;;;16.23;14.63;;;10.60;94.00;;;;;;5116006;27;20419;-68
2022/10/13 04:36:18;;;;;;;14.75;13.25;;;10.70;94.00;;;;;;5128225;27;20410;-67
2022/10/13 04:38:45;;;;;;;15.82;14.23;;;10.70;94.00;;;;;;5125144;27;20950;-68
2022/10/13 04:41:13;;;;;;;15.32;13.82;;;10.70;93.90;;;;;;5096449;27;20433;-68
2022/10/13 04:43:40;;;;;;;17.90;16.00;;;10.60;93.90;;;;;;5106235;27;20420;-68
2022/10/13 04:46:10;;;;;;;15.90;14.40;;;10.70;94.00;;;;;;5111429;27;20431;-68
2022/10/13 04:48:37;;;;;;;15.90;14.20;;;10.70;93.80;;;;;;5116479;27;20414;-67
2022/10/13 04:51:07;;;;;;;15.90;14.30;;;10.70;93.80;;;;;;5109144;27;20434;-67
2022/10/13 04:53:34;;;;;;;14.77;13.35;;;10.70;93.70;;;;;;5110489;27;20439;-68
2022/10/13 04:56:02;;;;;;;15.70;14.15;;;10.70;93.70;;;;;;5112577;27;20932;-67
2022/10/13 04:58:30;;;;;;;15.32;13.75;;;10.70;93.70;;;;;;5116320;27;20437;-68
2022/10/13 05:00:57;;;;;;;16.40;14.73;;;10.70;93.70;;;;;;5118682;27;20418;-67
2022/10/13 05:03:24;;;;;;;15.45;14.05;;;10.70;93.60;;;;;;5109371;27;20898;-68
2022/10/13 05:05:51;;;;;;;15.50;13.88;;;10.70;93.60;;;;;;5107996;27;20427;-68
2022/10/13 05:08:20;;;;;;;15.40;13.80;;;10.80;93.70;;;;;;5114541;27;20418;-68
2022/10/13 05:10:54;;;;;;;16.17;14.48;;;10.80;93.50;;;;;;5108718;27;20420;-68
2022/10/13 05:13:21;;;;;;;14.87;13.37;;;10.80;93.40;;;;;;5107584;28;20432;-67
2022/10/13 05:15:47;;;;;;;15.02;13.52;;;10.80;93.40;;;;;;5110611;27;20422;-67
2022/10/13 05:18:14;;;;;;;16.50;14.80;;;10.80;93.30;;;;;;5110778;28;20451;-67
2022/10/13 05:20:41;;;;;;;15.15;13.75;;;10.70;93.30;;;;;;5112241;28;20435;-67
2022/10/13 05:23:08;;;;;;;15.60;14.00;;;10.70;93.30;;;;;;5104004;28;20432;-67
2022/10/13 05:25:36;;;;;;;15.35;13.85;;;10.70;93.30;;;;;;5111648;28;20453;-66
2022/10/13 05:28:03;;;;;;;14.68;13.27;;;10.70;93.30;;;;;;5105188;28;20416;-68
2022/10/13 05:30:31;;;;;;;15.20;13.80;;;10.70;93.40;;;;;;5110071;28;20413;-67
2022/10/13 05:32:58;;;;;;;14.30;12.80;;;10.70;93.40;;;;;;5120657;28;20470;-67
2022/10/13 05:35:25;;;;;;;15.70;14.20;;;10.70;93.40;;;;;;5118665;28;20423;-66
2022/10/13 05:37:51;;;;;;;15.18;13.70;;;10.70;93.30;;;;;;5105248;28;20432;-61
2022/10/13 05:40:20;;;;;;;14.68;13.18;;;10.70;93.40;;;;;;5111684;28;20432;-61
2022/10/13 05:42:49;;;;;;;14.38;12.88;;;10.70;93.30;;;;;;5106135;28;20420;-61
2022/10/13 05:45:17;;;;;;;19.25;13.70;;;10.60;93.20;;;;;;5112912;28;20419;-62
2022/10/13 05:47:43;;;;;;;15.67;13.43;;;10.60;93.20;;;;;;5121954;28;20509;-68
2022/10/13 05:50:10;;;;;;;15.20;13.48;;;10.60;93.30;;;;;;5119183;28;20420;-68
2022/10/13 05:52:37;;;;;;;15.45;13.48;;;10.60;93.30;;;;;;5114330;27;20459;-68
2022/10/13 05:55:08;;;;;;;14.43;13.02;;;10.60;93.30;;;;;;5104678;28;20416;-69
2022/10/13 05:57:39;;;;;;;14.35;12.73;;;10.60;93.30;;;;;;5114350;27;20428;-68
2022/10/13 06:00:10;;;;;;;14.75;13.35;;;10.60;93.30;;;;;;5126214;27;20442;-68
2022/10/13 06:02:43;;;;;;;17.03;13.60;;;10.60;93.30;;;;;;5113887;27;20416;-68
2022/10/13 06:05:14;;;;;;;15.23;12.75;;;10.60;93.30;;;;;;5114849;27;20824;-68
2022/10/13 06:07:41;;;;;;;13.40;12.00;;;10.70;93.30;;;;;;5114452;27;20793;-68
2022/10/13 06:10:09;;;;;;;13.73;12.32;;;10.70;93.40;;;;;;5111865;27;20959;-68
2022/10/13 06:12:35;;;;;;;14.25;12.80;;;10.70;93.40;;;;;;5116675;27;20430;-68
2022/10/13 06:15:02;;;;;;;14.95;13.20;;;10.70;93.40;;;;;;5122974;27;20414;-68
2022/10/13 06:17:30;;;;;;;14.43;12.95;;;10.70;93.20;;;;;;5122990;27;21113;-68
2022/10/13 06:19:58;;;;;;;14.32;12.93;;;10.70;93.10;;;;;;5105653;27;20420;-65
2022/10/13 06:22:25;;;;;;;14.25;12.95;;;10.70;93.20;;;;;;5123345;27;20430;-66
2022/10/13 06:24:51;;;;;;;13.98;12.55;;;10.70;93.20;;;;;;5103039;27;20447;-67
2022/10/13 06:27:18;;;;;;;14.63;13.10;;;10.70;93.30;;;;;;5118334;27;20410;-66
2022/10/13 06:29:45;;;;;;;14.18;12.68;;;10.70;93.40;;;;;;5127231;27;20451;-66
2022/10/13 06:32:12;;;;;;;14.60;13.10;;;10.80;93.20;;;;;;5130303;27;20406;-66
2022/10/13 06:34:40;;;;;;;14.00;12.52;;;10.80;93.10;;;;;;5118363;27;20423;-65
2022/10/13 06:37:06;;;;;;;14.63;12.52;;;10.80;93.50;;;;;;5111068;27;20422;-65
2022/10/13 06:39:33;;;;;;;14.75;13.25;;;10.80;93.10;;;;;;5106439;27;20430;-65
2022/10/13 06:42:00;;;;;;;14.60;13.17;;;10.80;93.00;;;;;;5113710;27;20412;-67
2022/10/13 06:44:27;;;;;;;14.30;13.00;;;10.80;93.00;;;;;;5115403;27;20420;-67
2022/10/13 06:46:54;;;;;;;15.60;13.18;;;10.80;92.90;;;;;;5119086;27;20418;-67
2022/10/13 06:49:20;;;;;;;14.43;13.02;;;10.80;93.00;;;;;;5115010;27;20921;-66
2022/10/13 06:51:48;;;;;;;14.85;13.05;;;10.80;92.90;;;;;;5107321;27;20424;-65
2022/10/13 06:54:16;;;;;;;14.80;13.30;;;10.80;93.00;;;;;;5105523;27;20414;-65
2022/10/13 06:56:42;;;;;;;14.20;12.80;;;10.80;93.00;;;;;;5112679;27;20419;-66
2022/10/13 06:59:09;;;;;;;16.98;13.90;;;10.90;93.10;;;;;;5118927;27;20433;-65
2022/10/13 07:01:36;;;;;;;13.63;12.23;;;10.90;92.90;;;;;;5122790;27;20420;-65
2022/10/13 07:04:03;;;;;;;14.35;12.85;;;11.00;92.80;;;;;;5109458;27;20436;-66
2022/10/13 07:06:30;;;;;;;16.95;13.10;;;11.00;92.70;;;;;;5102038;28;20517;-66
2022/10/13 07:08:58;;;;;;;15.18;13.68;;;11.00;92.80;;;;;;5111609;27;20426;-66
2022/10/13 07:11:24;;;;;;;15.20;13.13;;;11.00;92.60;;;;;;5107497;27;20943;-66
2022/10/13 07:13:54;;;;;;;13.82;12.02;;;11.10;92.70;;;;;;5125475;27;20450;-66
2022/10/13 07:16:20;;;;;;;16.13;13.40;;;11.20;92.40;;;;;;5124625;27;20430;-66
2022/10/13 07:18:48;;;;;;;14.40;12.50;;;11.20;92.10;;;;;;5113979;27;20445;-66
2022/10/13 07:21:15;;;;;;;15.27;13.77;;;11.20;91.90;;;;;;5119800;27;20427;-66
2022/10/13 07:23:42;;;;;;;14.55;13.10;;;11.20;91.90;;;;;;5104121;27;21168;-65
2022/10/13 07:26:12;;;;;;;15.70;13.20;;;11.30;92.10;;;;;;5110703;27;20491;-66
2022/10/13 07:28:40;;;;;;;14.32;12.88;;;11.30;91.90;;;;;;5128642;27;20413;-66
2022/10/13 07:31:09;;;;;;;14.80;13.13;;;11.40;91.90;;;;;;5129378;27;20426;-65
2022/10/13 07:33:36;;;;;;;15.37;12.70;;;11.50;91.90;;;;;;5115098;27;20938;-68
2022/10/13 07:36:07;;;;;;;13.15;11.95;;;11.60;91.70;;;;;;5113968;27;20428;-66
2022/10/13 07:38:34;;;;;;;15.07;12.67;;;11.70;91.30;;;;;;5102635;27;20424;-65
2022/10/13 07:41:01;;;;;;;13.02;11.80;;;11.90;91.00;;;;;;5116115;27;20419;-65
2022/10/13 07:43:29;;;;;;;13.20;11.87;;;12.10;90.20;;;;;;5108275;27;20424;-65
2022/10/13 07:45:58;;;;;;;12.70;11.50;;;12.20;90.20;;;;;;5123183;27;20479;-65
2022/10/13 07:48:25;;;;;;;13.52;12.00;;;12.30;90.10;;;;;;5119910;27;20419;-64
2022/10/13 07:50:52;;;;;;;12.85;11.50;;;12.40;88.90;;;;;;5106986;28;20432;-64
2022/10/13 07:53:19;;;;;;;13.38;12.07;;;12.50;88.70;;;;;;5107610;27;20424;-66
2022/10/13 07:55:45;;;;;;;13.43;12.23;;;12.50;88.40;;;;;;5105498;28;20898;-66
2022/10/13 07:58:12;;;;;;;14.45;12.95;;;12.50;88.40;;;;;;5108057;28;20428;-67
2022/10/13 08:00:40;;;;;;;12.55;11.25;;;12.50;88.50;;;;;;5123913;27;20466;-66
2022/10/13 08:03:07;;;;;;;14.17;12.77;;;12.60;88.40;;;;;;5115139;27;20495;-66
2022/10/13 08:05:36;;;;;;;12.80;11.50;;;12.70;88.00;;;;;;5106416;27;20439;-66
2022/10/13 08:08:03;;;;;;;12.68;11.57;;;12.70;88.00;;;;;;5096314;28;20425;-66
2022/10/13 08:10:30;;;;;;;12.80;11.60;;;12.70;87.90;;;;;;5106679;27;20428;-67
2022/10/13 08:12:56;;;;;;;13.82;12.43;;;12.70;87.50;;;;;;5119449;27;20463;-67
2022/10/13 08:15:23;;;;;;;14.10;12.70;;;12.70;87.60;;;;;;5126332;27;20410;-66
2022/10/13 08:17:51;;;;;;;12.88;11.65;;;12.70;87.70;;;;;;5107954;28;20479;-67
2022/10/13 08:20:18;;;;;;;13.37;11.97;;;12.70;87.60;;;;;;5103583;27;20999;-66
2022/10/13 08:22:45;;;;;;;14.32;12.27;;;12.80;87.60;;;;;;5109946;27;20426;-67
2022/10/13 08:25:12;;;;;;;13.75;12.50;;;12.80;87.40;;;;;;5118195;27;20418;-67
2022/10/13 08:27:38;;;;;;;14.95;12.60;;;12.90;87.50;;;;;;5124111;27;20416;-67
2022/10/13 08:30:06;;;;;;;13.98;12.65;;;12.90;87.50;;;;;;5123020;27;20419;-68
2022/10/13 08:32:33;;;;;;;14.00;12.35;;;13.00;87.40;;;;;;5109154;27;20430;-68
2022/10/13 08:35:01;;;;;;;13.25;12.05;;;13.10;87.00;;;;;;5104476;27;20426;-66
2022/10/13 08:37:28;;;;;;;11.88;10.68;;;13.20;85.80;;;;;;5113800;27;20420;-66
2022/10/13 08:39:56;;;;;;;13.15;11.95;;;13.40;85.60;;;;;;5112202;27;20430;-67
2022/10/13 08:42:23;;;;;;;13.20;11.90;;;13.40;85.00;;;;;;5120194;27;20445;-67
2022/10/13 08:44:52;;;;;;;13.63;12.23;;;13.40;84.60;;;;;;5125507;27;20406;-65
2022/10/13 08:47:30;;;;;;;13.63;11.48;;;13.40;84.70;;;;;;5105628;27;20433;-67
2022/10/13 08:49:59;;;;;;;13.40;12.10;;;13.40;84.90;;;;;;5111583;27;20438;-67
2022/10/13 08:52:41;;;;;;;13.40;12.10;;;13.30;85.10;;;;;;5106387;27;20460;-67
2022/10/13 08:55:14;;;;;;;13.98;12.45;;;13.30;85.40;;;;;;5107431;28;20415;-67
2022/10/13 08:57:42;;;;;;;13.25;12.02;;;13.20;85.50;;;;;;5126624;27;20414;-68
2022/10/13 09:00:12;;;;;;;14.10;12.70;;;13.20;85.60;;;;;;5116851;27;20948;-67
2022/10/13 09:02:41;;;;;;;15.88;12.63;;;13.30;85.70;;;;;;5116843;27;20421;-68
2022/10/13 09:05:14;;;;;;;12.98;11.77;;;13.30;86.00;;;;;;5102843;27;20799;-67
2022/10/13 09:07:45;;;;;;;14.80;12.20;;;13.20;85.80;;;;;;5102028;28;20427;-67
2022/10/13 09:10:13;;;;;;;14.35;12.95;;;13.30;85.90;;;;;;5107043;27;20408;-67
2022/10/13 09:12:40;;;;;;;15.00;12.13;;;13.30;85.70;;;;;;5127803;27;20863;-67
2022/10/13 09:15:09;;;;;;;13.47;11.93;;;13.40;85.50;;;;;;5117485;27;20429;-67
2022/10/13 09:17:37;;;;;;;14.20;12.73;;;13.50;85.50;;;;;;5107849;28;20492;-67
2022/10/13 09:20:07;;;;;;;13.88;12.48;;;13.50;84.90;;;;;;5117300;28;20420;-67
2022/10/13 09:22:35;;;;;;;13.53;12.23;;;13.60;84.80;;;;;;5110112;27;20437;-68
2022/10/13 09:25:10;;;;;;;12.77;11.32;;;13.70;84.10;;;;;;5111426;28;20427;-67
2022/10/13 09:27:43;;;;;;;13.30;12.00;;;13.70;84.20;;;;;;5122738;28;21237;-69
2022/10/13 09:30:31;;;;;;;12.80;11.60;;;13.80;84.30;;;;;;5113518;27;20423;-69
2022/10/13 09:33:23;;;;;;;14.57;12.10;;;13.80;83.80;;;;;;5106084;27;20968;-70
2022/10/13 09:36:09;;;;;;;12.77;11.38;;;14.00;83.50;;;;;;5117710;27;20914;-69
2022/10/13 09:38:37;;;;;;;13.30;11.90;;;14.20;82.90;;;;;;5125927;27;20428;-69
2022/10/13 09:41:12;;;;;;;12.93;11.73;;;14.30;82.50;;;;;;5128150;27;20491;-70
2022/10/13 09:43:43;;;;;;;13.00;11.80;;;14.40;81.80;;;;;;5131181;27;20417;-69
2022/10/13 09:46:20;;;;;;;13.63;12.23;;;14.50;81.40;;;;;;5108748;27;20429;-70
2022/10/13 09:48:51;;;;;;;13.07;11.70;;;14.60;81.20;;;;;;5110310;27;21417;-63
2022/10/13 09:51:32;;;;;;;13.32;12.02;;;14.60;80.70;;;;;;5110485;27;20453;-63
2022/10/13 09:53:59;;;;;;;12.90;11.70;;;14.70;80.50;;;;;;5130958;27;20417;-69
2022/10/13 09:56:34;;;;;;;13.45;12.15;;;14.80;80.50;;;;;;5118204;27;20412;-69
2022/10/13 09:59:10;;;;;;;13.30;11.85;;;14.90;80.00;;;;;;5106350;27;20773;-68
2022/10/13 10:01:41;;;;;;;12.40;11.20;;;15.00;79.10;;;;;;5128879;27;20439;-69
2022/10/13 10:04:13;;;;;;;12.55;11.35;;;15.00;79.40;;;;;;5108336;27;20436;-70
2022/10/13 10:06:40;;;;;;;14.18;11.60;;;15.30;78.90;;;;;;5108633;27;20454;-72
2022/10/13 10:09:32;;;;;;;11.70;10.50;;;15.70;77.60;;;;;;5121813;27;20407;-70
2022/10/13 10:12:02;;;;;;;12.77;11.52;;;16.10;76.40;;;;;;5111921;27;20426;-72
2022/10/13 10:14:31;;;;;;;11.80;10.70;;;16.60;73.30;;;;;;5125348;27;20424;-71
2022/10/13 10:17:07;;;;;;;11.13;9.80;;;16.90;71.50;;;;;;5117768;27;20419;-70
2022/10/13 10:19:47;;;;;;;11.18;10.15;;;17.10;71.80;;;;;;5102987;28;20495;-70
2022/10/13 10:22:25;;;;;;;11.50;10.30;;;17.50;69.60;;;;;;5104824;27;20427;-71
2022/10/13 10:25:01;;;;;;;11.45;10.45;;;17.70;69.10;;;;;;5126439;27;20402;-68
2022/10/13 10:27:36;;;;;;;11.30;9.93;;;17.80;68.00;;;;;;5120235;27;20428;-68
2022/10/13 10:30:05;;;;;;;10.93;9.70;;;18.00;67.60;;;;;;5116773;27;20453;-69
2022/10/13 10:32:40;;;;;;;11.80;10.20;;;18.10;66.90;;;;;;5126471;27;20436;-68
2022/10/13 10:35:13;;;;;;;12.02;9.90;;;18.20;66.90;;;;;;5114758;27;20424;-67
2022/10/13 10:37:54;;;;;;;11.00;9.90;;;18.30;66.80;;;;;;5118487;27;20454;-68
2022/10/13 10:40:34;;;;;;;11.27;10.07;;;18.30;66.00;;;;;;5109590;27;20471;-67
2022/10/13 10:43:49;;;;;;;10.50;9.40;;;18.20;66.10;;;;;;5120565;27;20444;-68
2022/10/13 10:46:19;;;;;;;11.88;9.98;;;18.10;67.00;;;;;;5047365;28;20965;-68
2022/10/13 10:48:49;;;;;;;13.43;9.98;;;18.20;66.70;;;;;;5033203;28;21031;-68
2022/10/13 10:51:17;;;;;;;10.45;9.45;;;18.30;66.60;;;;;;5081435;27;20428;-68
2022/10/13 10:53:57;;;;;;;11.15;9.15;;;18.30;66.40;;;;;;5118179;27;20420;-70
2022/10/13 10:56:32;;;;;;;11.10;9.90;;;18.40;66.00;;;;;;5105367;27;20437;-68
2022/10/13 10:59:11;;;;;;;10.00;9.00;;;18.30;66.30;;;;;;5119448;27;20424;-68
2022/10/13 11:01:46;;;;;;;11.98;9.45;;;18.20;66.80;;;;;;5108130;27;20409;-68
2022/10/13 11:04:34;;;;;;;11.80;9.48;;;18.20;67.10;;;;;;5113562;27;20424;-68
2022/10/13 11:07:01;;;;;;;10.48;9.35;;;18.10;66.80;;;;;;5124072;27;20478;-68
2022/10/13 11:10:06;;;;;;;10.32;8.65;;;18.10;67.00;;;;;;5121310;27;20420;-69
2022/10/13 11:13:21;;;;;;;9.73;8.75;;;18.00;67.90;;;;;;5101311;27;20410;-67
2022/10/13 11:15:49;;;;;;;10.50;8.77;;;17.90;68.40;;;;;;5049419;28;20521;-67
2022/10/13 11:18:57;;;;;;;9.40;8.57;;;17.90;68.60;;;;;;5093081;27;20438;-70
2022/10/13 11:21:24;;;;;;;10.85;9.25;;;17.90;69.60;;;;;;5086558;27;20423;-69
2022/10/13 11:23:51;;;;;;;10.20;9.00;;;17.90;68.20;;;;;;5113786;27;20410;-68
2022/10/13 11:26:41;;;;;;;9.85;8.85;;;17.70;68.80;;;;;;5122929;27;20837;-69
2022/10/13 11:29:18;;;;;;;11.60;9.00;;;17.60;69.50;;;;;;5108801;27;20407;-68
2022/10/13 11:31:52;;;;;;;9.50;8.60;;;17.60;69.80;;;;;;5128622;27;20410;-68
2022/10/13 11:34:27;;;;;;;10.63;8.82;;;17.60;70.10;;;;;;5121222;27;20458;-71
2022/10/13 11:36:59;;;;;;;9.98;8.65;;;17.60;70.80;;;;;;5105208;27;20434;-68
2022/10/13 11:40:04;;;;;;;10.20;9.20;;;17.50;71.50;;;;;;5109908;27;20914;-71
2022/10/13 11:42:49;;;;;;;10.70;9.60;;;17.60;72.40;;;;;;5121021;27;20433;-69
2022/10/13 11:45:39;;;;;;;10.07;9.07;;;17.50;73.70;;;;;;5104543;27;20402;-69
2022/10/13 11:48:58;;;;;;;10.50;9.20;;;17.40;74.90;;;;;;5117844;27;20426;-69
2022/10/13 11:51:32;;;;;;;10.70;8.98;;;17.40;73.70;;;;;;5055340;28;20868;-69
2022/10/13 11:54:10;;;;;;;10.15;8.27;;;17.40;75.50;;;;;;5058662;28;20483;-69
2022/10/13 11:56:45;;;;;;;9.00;7.30;;;17.30;74.00;;;;;;5100930;27;20468;-69
2022/10/13 11:59:21;;;;;;;9.70;7.10;;;17.30;74.00;;;;;;5119529;27;20965;-69
2022/10/13 12:01:52;;;;;;;8.07;7.28;;;17.20;72.60;;;;;;5120060;27;20427;-69
2022/10/13 12:04:22;;;;;;;8.20;7.40;;;17.20;72.60;;;;;;5115321;27;20494;-70
2022/10/13 12:06:56;;;;;;;7.82;6.30;;;17.10;72.50;;;;;;5118509;27;20786;-70
2022/10/13 12:09:24;;;;;;;8.27;6.05;;;17.00;73.60;;;;;;5113552;27;20438;-71
2022/10/13 12:11:58;;;;;;;8.15;6.65;;;16.90;74.90;;;;;;5129220;27;20407;-69
2022/10/13 12:14:31;;;;;;;9.00;6.90;;;16.90;76.60;;;;;;5102127;27;20437;-69
2022/10/13 12:16:59;;;;;;;9.30;6.90;;;16.90;76.00;;;;;;5105142;27;20505;-69
2022/10/13 12:19:29;;;;;;;7.53;5.60;;;16.90;77.10;;;;;;5118438;27;21068;-69
2022/10/13 12:21:58;;;;;;;7.15;6.32;;;16.90;74.70;;;;;;5112822;27;20422;-69
2022/10/13 12:24:27;;;;;;;6.70;5.85;;;16.90;74.10;;;;;;5106236;28;20736;-69
2022/10/13 12:26:54;;;;;;;7.00;5.95;;;17.00;74.10;;;;;;5113207;27;21068;-69
2022/10/13 12:29:25;;;;;;;6.82;6.13;;;17.00;73.90;;;;;;5121738;27;20414;-68
2022/10/13 12:31:52;;;;;;;7.78;7.07;;;17.00;75.40;;;;;;5114544;27;20433;-68
2022/10/13 12:34:23;;;;;;;7.53;6.75;;;17.00;76.20;;;;;;5104528;28;20432;-68
2022/10/13 12:36:58;;;;;;;8.68;7.28;;;17.00;75.00;;;;;;5114263;27;20421;-70
2022/10/13 12:39:26;;;;;;;9.57;6.70;;;16.90;75.20;;;;;;5128547;27;20437;-70
2022/10/13 12:41:55;;;;;;;8.98;6.75;;;16.90;75.40;;;;;;5128612;27;20417;-70
2022/10/13 12:44:24;;;;;;;8.93;6.60;;;16.90;76.60;;;;;;5127236;27;20395;-67
2022/10/13 12:46:52;;;;;;;8.55;7.00;;;16.90;75.70;;;;;;5103571;27;20939;-68
2022/10/13 12:49:22;;;;;;;8.05;6.85;;;16.90;76.00;;;;;;5109677;27;20408;-68